createdAt,value
2023-02-05T00:00:18.797Z,4.70
2023-02-05T00:03:05.425Z,5.93
2023-02-05T00:05:32.163Z,5.13
2023-02-05T00:07:59.137Z,6.47
2023-02-05T00:10:25.462Z,5.97
2023-02-05T00:12:51.960Z,5.90
2023-02-05T00:15:18.138Z,4.60
2023-02-05T00:17:44.725Z,4.40
2023-02-05T00:20:11.222Z,6.37
2023-02-05T00:22:37.659Z,7.83
2023-02-05T00:25:04.239Z,7.27
2023-02-05T00:27:32.080Z,7.57
2023-02-05T00:29:58.209Z,5.40
2023-02-05T00:32:24.715Z,5.53
2023-02-05T00:34:51.216Z,6.67
2023-02-05T00:37:17.746Z,5.33
2023-02-05T00:39:43.932Z,7.20
2023-02-05T00:42:10.338Z,7.70
2023-02-05T00:44:36.488Z,9.80
2023-02-05T00:47:02.884Z,7.80
2023-02-05T00:49:30.571Z,6.70
2023-02-05T00:51:57.124Z,6.67
2023-02-05T00:54:23.338Z,7.37
2023-02-05T00:56:49.836Z,6.27
2023-02-05T00:59:15.989Z,6.40
2023-02-05T01:01:42.569Z,5.50
2023-02-05T01:04:08.741Z,5.30
2023-02-05T01:06:35.244Z,5.83
2023-02-05T01:09:01.429Z,9.47
2023-02-05T01:11:27.938Z,8.07
2023-02-05T01:13:54.060Z,8.27
2023-02-05T01:16:20.587Z,8.97
2023-02-05T01:18:46.729Z,10.03
2023-02-05T01:21:13.452Z,10.33
2023-02-05T01:23:39.611Z,13.73
2023-02-05T01:26:06.642Z,10.10
2023-02-05T01:28:32.825Z,9.33
2023-02-05T01:30:59.328Z,10.17
2023-02-05T01:33:25.556Z,9.87
2023-02-05T01:35:52.045Z,9.40
2023-02-05T01:38:18.266Z,13.80
2023-02-05T01:40:44.942Z,35.77
2023-02-05T01:43:17.460Z,21.37
2023-02-05T01:46:07.283Z,20.47
2023-02-05T01:48:39.849Z,17.73
2023-02-05T01:51:11.222Z,14.53
2023-02-05T01:53:39.597Z,23.37
2023-02-05T01:56:11.426Z,23.37
2023-02-05T01:58:47.707Z,50.10
2023-02-05T02:01:14.372Z,43.17
2023-02-05T02:03:40.762Z,27.57
2023-02-05T02:06:09.258Z,20.90
2023-02-05T02:08:35.460Z,13.40
2023-02-05T02:11:05.066Z,11.20
2023-02-05T02:13:34.887Z,9.53
2023-02-05T02:16:07.122Z,9.37
2023-02-05T02:18:37.377Z,11.90
2023-02-05T02:21:25.158Z,6.43
2023-02-05T02:24:13.273Z,8.30
2023-02-05T02:27:04.273Z,7.70
2023-02-05T02:29:46.341Z,6.97
2023-02-05T02:32:31.038Z,8.83
2023-02-05T02:35:21.904Z,8.83
2023-02-05T02:38:05.026Z,7.37
2023-02-05T02:40:39.673Z,6.50
2023-02-05T02:43:11.755Z,8.17
2023-02-05T02:45:45.508Z,9.77
2023-02-05T02:48:15.044Z,7.67
2023-02-05T02:50:46.252Z,8.70
2023-02-05T02:53:30.631Z,10.10
2023-02-05T02:56:00.127Z,15.77
2023-02-05T02:58:31.949Z,13.93
2023-02-05T03:01:00.942Z,13.93
2023-02-05T03:03:32.708Z,12.17
2023-02-05T03:06:03.069Z,16.73
2023-02-05T03:08:53.972Z,12.73
2023-02-05T03:11:21.260Z,7.03
2023-02-05T03:13:47.998Z,11.40
2023-02-05T03:16:19.254Z,8.13
2023-02-05T03:18:48.110Z,7.47
2023-02-05T03:21:23.276Z,11.03
2023-02-05T03:23:50.189Z,9.70
2023-02-05T03:26:27.286Z,11.33
2023-02-05T03:29:05.036Z,11.10
2023-02-05T03:31:54.000Z,13.47
2023-02-05T03:34:40.617Z,16.33
2023-02-05T03:37:17.732Z,17.17
2023-02-05T03:39:57.845Z,17.57
2023-02-05T03:42:32.235Z,10.87
2023-02-05T03:45:25.485Z,13.63
2023-02-05T03:48:00.200Z,9.50
2023-02-05T03:50:37.426Z,12.47
2023-02-05T03:53:34.224Z,17.00
2023-02-05T03:56:12.471Z,11.60
2023-02-05T03:58:47.291Z,14.30
2023-02-05T04:01:16.276Z,11.37
2023-02-05T04:03:43.798Z,9.83
2023-02-05T04:06:12.339Z,10.80
2023-02-05T04:08:39.531Z,9.80
2023-02-05T04:11:06.667Z,10.20
2023-02-05T04:13:33.633Z,7.80
2023-02-05T04:16:01.911Z,8.33
2023-02-05T04:18:28.100Z,9.20
2023-02-05T04:20:54.600Z,9.10
2023-02-05T04:23:27.196Z,10.90
2023-02-05T04:25:54.895Z,7.47
2023-02-05T04:28:26.676Z,7.73
2023-02-05T04:30:53.605Z,13.00
2023-02-05T04:33:19.772Z,15.57
2023-02-05T04:35:46.881Z,15.10
2023-02-05T04:38:13.883Z,12.87
2023-02-05T04:40:40.418Z,8.77
2023-02-05T04:43:06.732Z,12.43
2023-02-05T04:45:33.584Z,8.63
2023-02-05T04:48:00.315Z,14.73
2023-02-05T04:50:27.339Z,10.63
2023-02-05T04:52:53.859Z,10.87
2023-02-05T04:55:20.633Z,14.40
2023-02-05T04:57:47.423Z,14.33
2023-02-05T05:00:14.796Z,15.63
2023-02-05T05:02:41.224Z,16.10
2023-02-05T05:05:08.230Z,16.93
2023-02-05T05:07:34.496Z,12.97
2023-02-05T05:10:01.000Z,13.43
2023-02-05T05:12:27.203Z,20.83
2023-02-05T05:14:53.612Z,20.70
2023-02-05T05:17:19.743Z,21.27
2023-02-05T05:19:46.444Z,23.57
2023-02-05T05:22:12.612Z,16.83
2023-02-05T05:24:39.088Z,17.73
2023-02-05T05:27:05.337Z,12.83
2023-02-05T05:29:31.888Z,12.47
2023-02-05T05:31:58.045Z,15.30
2023-02-05T05:34:24.549Z,12.63
2023-02-05T05:36:50.779Z,12.43
2023-02-05T05:39:35.747Z,10.43
2023-02-05T05:42:20.851Z,15.20
2023-02-05T05:44:51.653Z,13.00
2023-02-05T05:47:18.617Z,13.47
2023-02-05T05:49:45.448Z,13.03
2023-02-05T05:52:11.630Z,12.63
2023-02-05T05:54:38.268Z,12.00
2023-02-05T05:57:06.833Z,13.97
2023-02-05T05:59:33.351Z,12.17
2023-02-05T06:02:03.419Z,14.07
2023-02-05T06:04:30.346Z,14.47
2023-02-05T06:06:56.770Z,14.70
2023-02-05T06:09:23.290Z,14.43
2023-02-05T06:11:49.469Z,14.93
2023-02-05T06:14:16.516Z,16.17
2023-02-05T06:16:42.674Z,15.70
2023-02-05T06:19:09.255Z,12.20
2023-02-05T06:21:35.397Z,13.27
2023-02-05T06:24:02.170Z,14.53
2023-02-05T06:26:28.329Z,15.53
2023-02-05T06:28:56.499Z,10.43
2023-02-05T06:31:23.287Z,14.10
2023-02-05T06:33:49.848Z,9.73
2023-02-05T06:36:16.021Z,11.47
2023-02-05T06:38:42.551Z,12.20
2023-02-05T06:41:08.682Z,9.03
2023-02-05T06:43:35.123Z,8.23
2023-02-05T06:46:01.437Z,12.53
2023-02-05T06:48:27.940Z,12.93
2023-02-05T06:50:54.219Z,13.23
2023-02-05T06:53:21.191Z,13.47
2023-02-05T06:55:47.596Z,11.07
2023-02-05T06:58:14.340Z,12.97
2023-02-05T07:00:41.392Z,15.43
2023-02-05T07:03:07.873Z,12.30
2023-02-05T07:05:34.678Z,14.80
2023-02-05T07:08:03.490Z,11.60
2023-02-05T07:10:29.888Z,15.33
2023-02-05T07:12:56.462Z,25.00
2023-02-05T07:15:22.727Z,19.57
2023-02-05T07:17:49.733Z,21.87
2023-02-05T07:20:16.193Z,16.37
2023-02-05T07:22:42.804Z,31.10
2023-02-05T07:25:09.239Z,32.30
2023-02-05T07:27:35.965Z,26.40
2023-02-05T07:30:02.687Z,23.23
2023-02-05T07:32:29.172Z,21.77
2023-02-05T07:34:55.320Z,23.87
2023-02-05T07:37:22.062Z,16.50
2023-02-05T07:39:48.236Z,17.67
2023-02-05T07:42:14.701Z,21.67
2023-02-05T07:44:48.620Z,13.97
2023-02-05T07:47:15.520Z,17.53
2023-02-05T07:49:41.787Z,14.60
2023-02-05T07:52:08.656Z,14.83
2023-02-05T07:54:35.082Z,11.70
2023-02-05T07:57:01.893Z,12.67
2023-02-05T07:59:28.649Z,17.83
2023-02-05T08:01:55.372Z,14.37
2023-02-05T08:04:22.073Z,14.87
2023-02-05T08:06:48.894Z,14.63
2023-02-05T08:09:16.126Z,18.67
2023-02-05T08:11:42.730Z,16.67
2023-02-05T08:14:09.157Z,19.00
2023-02-05T08:16:35.745Z,30.60
2023-02-05T08:19:02.220Z,19.27
2023-02-05T08:21:29.191Z,15.90
2023-02-05T08:23:57.758Z,12.67
2023-02-05T08:26:24.245Z,9.20
2023-02-05T08:28:50.527Z,12.90
2023-02-05T08:31:18.578Z,16.07
2023-02-05T08:33:46.969Z,23.17
2023-02-05T08:36:13.698Z,12.53
2023-02-05T08:38:40.009Z,9.90
2023-02-05T08:41:11.587Z,14.67
2023-02-05T08:43:42.460Z,108.50
2023-02-05T08:46:10.470Z,20.93
2023-02-05T08:48:36.849Z,20.87
2023-02-05T08:51:04.321Z,56.17
2023-02-05T08:53:32.127Z,17.93
2023-02-05T08:56:00.952Z,18.90
2023-02-05T08:58:27.982Z,18.67
2023-02-05T09:01:07.202Z,15.63
2023-02-05T09:03:33.665Z,17.90
2023-02-05T09:06:03.583Z,16.47
2023-02-05T09:08:31.277Z,14.47
2023-02-05T09:10:57.951Z,13.20
2023-02-05T09:13:25.033Z,18.00
2023-02-05T09:15:51.860Z,12.27
2023-02-05T09:18:18.245Z,13.20
2023-02-05T09:20:48.375Z,15.97
2023-02-05T09:23:16.908Z,16.47
2023-02-05T09:25:44.013Z,14.90
2023-02-05T09:28:12.846Z,13.90
2023-02-05T09:30:42.706Z,13.43
2023-02-05T09:33:10.568Z,12.37
2023-02-05T09:35:37.399Z,17.90
2023-02-05T09:38:04.947Z,15.97
2023-02-05T09:40:47.608Z,11.97
2023-02-05T09:43:14.024Z,15.67
2023-02-05T09:45:53.701Z,14.53
2023-02-05T09:48:42.076Z,14.20
2023-02-05T09:51:12.153Z,14.27
2023-02-05T09:53:46.548Z,14.73
2023-02-05T09:56:15.152Z,12.83
2023-02-05T09:58:45.517Z,15.13
2023-02-05T10:01:19.632Z,17.60
2023-02-05T10:03:48.010Z,12.30
2023-02-05T10:06:48.094Z,14.87
2023-02-05T10:09:29.438Z,12.57
2023-02-05T10:12:22.029Z,15.33
2023-02-05T10:15:26.451Z,13.07
2023-02-05T10:18:28.360Z,18.47
2023-02-05T10:21:13.770Z,14.23
2023-02-05T10:24:25.067Z,12.23
2023-02-05T10:27:43.904Z,16.17
2023-02-05T10:30:13.619Z,12.80
2023-02-05T10:32:46.154Z,11.53
2023-02-05T10:35:26.617Z,27.33
2023-02-05T10:37:56.847Z,19.17
2023-02-05T10:40:38.563Z,17.87
2023-02-05T10:43:25.906Z,27.10
2023-02-05T10:45:57.519Z,18.97
2023-02-05T10:48:29.968Z,24.03
2023-02-05T10:51:02.692Z,28.63
2023-02-05T10:53:30.579Z,24.47
2023-02-05T10:55:59.280Z,30.57
2023-02-05T10:58:32.262Z,22.63
2023-02-05T11:01:00.726Z,32.80
2023-02-05T11:03:27.263Z,27.83
2023-02-05T11:05:54.151Z,498.70
2023-02-05T11:08:41.716Z,40.13
2023-02-05T11:11:28.150Z,116.27
2023-02-05T11:14:00.449Z,53.27
2023-02-05T11:16:41.080Z,291.63
2023-02-05T11:19:23.625Z,92.70
2023-02-05T11:21:59.041Z,26.40
2023-02-05T11:24:36.832Z,20.90
2023-02-05T11:27:21.153Z,22.93
2023-02-05T11:29:47.569Z,54.00
2023-02-05T11:32:40.446Z,20.87
2023-02-05T11:35:28.847Z,15.57
2023-02-05T11:38:08.399Z,17.70
2023-02-05T11:40:36.303Z,62.90
2023-02-05T11:43:27.357Z,53.00
2023-02-05T11:45:57.123Z,25.50
2023-02-05T11:48:36.740Z,16.93
2023-02-05T11:51:05.374Z,17.17
2023-02-05T11:53:34.067Z,23.37
2023-02-05T11:56:07.061Z,65.10
2023-02-05T11:58:37.286Z,27.23
2023-02-05T12:01:23.732Z,16.80
2023-02-05T12:04:18.547Z,80.43
2023-02-05T12:07:03.465Z,105.00
2023-02-05T12:09:30.832Z,41.93
2023-02-05T12:12:22.930Z,30.23
2023-02-05T12:15:16.170Z,121.03
2023-02-05T12:17:57.280Z,76.87
2023-02-05T12:20:27.098Z,17.33
2023-02-05T12:23:14.064Z,28.13
2023-02-05T12:25:58.546Z,56.70
2023-02-05T12:29:01.864Z,28.17
2023-02-05T12:31:56.612Z,22.00
2023-02-05T12:34:27.501Z,12.27
2023-02-05T12:37:08.554Z,24.03
2023-02-05T12:39:35.597Z,17.13
2023-02-05T12:42:15.494Z,25.07
2023-02-05T12:45:06.713Z,8.73
2023-02-05T12:48:01.383Z,20.67
2023-02-05T12:50:56.010Z,45.07
2023-02-05T12:53:42.585Z,18.87
2023-02-05T12:56:21.044Z,22.90
2023-02-05T12:58:54.867Z,32.03
2023-02-05T13:01:28.350Z,20.53
2023-02-05T13:04:01.383Z,43.37
2023-02-05T13:06:33.492Z,57.33
2023-02-05T13:09:17.519Z,25.13
2023-02-05T13:12:07.139Z,25.17
2023-02-05T13:14:40.700Z,28.23
2023-02-05T13:17:55.498Z,58.20
2023-02-05T13:20:48.888Z,48.13
2023-02-05T13:23:34.798Z,14.50
2023-02-05T13:26:23.317Z,27.97
2023-02-05T13:29:09.717Z,366.57
2023-02-05T13:31:40.112Z,88.33
2023-02-05T13:34:08.686Z,82.13
2023-02-05T13:36:51.136Z,26.33
2023-02-05T13:39:55.274Z,16.70
2023-02-05T13:42:50.227Z,11.63
2023-02-05T13:46:02.120Z,10.83
2023-02-05T13:49:06.610Z,13.37
2023-02-05T13:51:42.359Z,16.10
2023-02-05T13:54:24.349Z,21.63
2023-02-05T13:57:07.862Z,15.00
2023-02-05T13:59:43.049Z,16.37
2023-02-05T14:02:21.744Z,18.03
2023-02-05T14:04:53.588Z,65.27
2023-02-05T14:07:33.624Z,24.73
2023-02-05T14:10:02.723Z,80.60
2023-02-05T14:12:39.492Z,90.30
2023-02-05T14:15:15.701Z,27.37
2023-02-05T14:17:42.027Z,50.67
2023-02-05T14:20:23.996Z,59.67
2023-02-05T14:22:53.236Z,48.53
2023-02-05T14:25:38.447Z,46.07
2023-02-05T14:28:19.869Z,26.23
2023-02-05T14:30:58.609Z,12.30
2023-02-05T14:33:30.592Z,10.13
2023-02-05T14:36:20.147Z,13.00
2023-02-05T14:38:55.955Z,7.87
2023-02-05T14:41:30.735Z,7.00
2023-02-05T14:44:22.554Z,14.37
2023-02-05T14:47:02.059Z,9.00
2023-02-05T14:49:33.144Z,10.80
2023-02-05T14:52:15.973Z,11.27
2023-02-05T14:54:48.228Z,10.83
2023-02-05T14:57:24.685Z,10.67
2023-02-05T15:00:06.218Z,26.70
2023-02-05T15:02:54.913Z,15.90
2023-02-05T15:05:49.502Z,18.43
2023-02-05T15:08:28.113Z,29.77
2023-02-05T15:14:20.247Z,58.97
2023-02-05T15:16:48.089Z,58.80
2023-02-05T15:19:18.966Z,48.10
2023-02-05T15:21:51.963Z,28.80
2023-02-05T15:24:21.454Z,16.77
2023-02-05T15:27:12.914Z,19.10
2023-02-05T15:29:49.647Z,22.13
2023-02-05T15:32:27.628Z,38.33
2023-02-05T15:34:57.852Z,51.67
2023-02-05T15:37:45.884Z,24.77
2023-02-05T15:40:23.031Z,16.57
2023-02-05T15:43:14.257Z,26.67
2023-02-05T15:45:44.574Z,42.67
2023-02-05T15:48:11.309Z,30.10
2023-02-05T15:50:50.845Z,28.43
2023-02-05T15:53:40.758Z,28.83
2023-02-05T15:56:15.038Z,18.90
2023-02-05T15:58:51.829Z,14.63
2023-02-05T16:01:30.968Z,14.83
2023-02-05T16:03:57.695Z,10.80
2023-02-05T16:06:26.259Z,13.53
2023-02-05T16:08:53.211Z,11.17
2023-02-05T16:11:30.682Z,15.47
2023-02-05T16:14:13.186Z,14.53
2023-02-05T16:16:45.378Z,10.53
2023-02-05T16:19:21.265Z,9.90
2023-02-05T16:21:54.366Z,15.80
2023-02-05T16:24:32.783Z,13.67
2023-02-05T16:27:20.698Z,23.37
2023-02-05T16:29:57.837Z,38.53
2023-02-05T16:32:42.010Z,82.90
2023-02-05T16:35:25.456Z,68.73
2023-02-05T16:37:52.557Z,59.77
2023-02-05T16:40:34.894Z,52.93
2023-02-05T16:43:24.689Z,55.10
2023-02-05T16:46:19.999Z,59.40
2023-02-05T16:48:46.887Z,54.43
2023-02-05T16:51:31.451Z,36.07
2023-02-05T16:54:00.858Z,22.50
2023-02-05T16:56:35.372Z,27.83
2023-02-05T16:59:08.285Z,17.70
2023-02-05T17:01:43.069Z,28.47
2023-02-05T17:04:37.007Z,35.33
2023-02-05T17:07:15.305Z,40.80
2023-02-05T17:09:42.301Z,37.13
2023-02-05T17:12:38.070Z,36.87
2023-02-05T17:15:14.556Z,41.57
2023-02-05T17:17:52.158Z,42.07
2023-02-05T17:20:24.968Z,48.73
2023-02-05T17:23:05.484Z,45.70
2023-02-05T17:25:37.772Z,44.07
2023-02-05T17:28:07.533Z,48.67
2023-02-05T17:30:35.227Z,36.13
2023-02-05T17:33:07.308Z,34.83
2023-02-05T17:35:34.051Z,65.40
2023-02-05T17:38:00.418Z,64.37
2023-02-05T17:40:27.450Z,68.53
2023-02-05T17:42:53.956Z,59.57
2023-02-05T17:45:21.972Z,66.03
2023-02-05T17:47:49.139Z,66.73
2023-02-05T17:50:16.792Z,65.70
2023-02-05T17:52:44.476Z,86.00
2023-02-05T17:55:16.554Z,93.37
2023-02-05T17:57:44.134Z,95.90
2023-02-05T18:00:22.367Z,94.37
2023-02-05T18:02:49.812Z,88.60
2023-02-05T18:05:18.714Z,68.63
2023-02-05T18:07:57.099Z,71.63
2023-02-05T18:10:27.205Z,69.17
2023-02-05T18:12:55.042Z,62.00
2023-02-05T18:15:23.031Z,52.37
2023-02-05T18:17:49.747Z,55.90
2023-02-05T18:20:19.170Z,56.07
2023-02-05T18:22:46.600Z,61.17
2023-02-05T18:25:13.570Z,47.17
2023-02-05T18:27:40.201Z,39.50
2023-02-05T18:30:07.662Z,36.00
2023-02-05T18:32:33.881Z,53.17
2023-02-05T18:35:00.710Z,57.63
2023-02-05T18:37:27.099Z,51.90
2023-02-05T18:39:53.840Z,49.90
2023-02-05T18:42:22.485Z,53.50
2023-02-05T18:44:49.215Z,52.00
2023-02-05T18:47:15.597Z,51.97
2023-02-05T18:49:42.363Z,50.03
2023-02-05T18:52:09.742Z,59.83
2023-02-05T18:54:36.815Z,53.50
2023-02-05T18:57:03.371Z,59.43
2023-02-05T18:59:30.103Z,73.23
2023-02-05T19:01:56.928Z,78.90
2023-02-05T19:04:26.148Z,76.43
2023-02-05T19:06:54.142Z,73.77
2023-02-05T19:09:24.462Z,65.97
2023-02-05T19:11:53.794Z,60.90
2023-02-05T19:14:22.654Z,66.43
2023-02-05T19:16:50.307Z,59.50
2023-02-05T19:19:20.468Z,57.63
2023-02-05T19:21:50.774Z,64.00
2023-02-05T19:24:19.230Z,72.30
2023-02-05T19:26:47.238Z,83.10
2023-02-05T19:29:16.297Z,79.30
2023-02-05T19:31:43.837Z,72.70
2023-02-05T19:34:11.537Z,77.93
2023-02-05T19:36:38.758Z,79.50
2023-02-05T19:39:07.401Z,84.20
2023-02-05T19:41:36.257Z,98.67
2023-02-05T19:44:05.611Z,118.73
2023-02-05T19:46:43.663Z,133.77
2023-02-05T19:49:14.277Z,152.87
2023-02-05T19:51:43.323Z,149.47
2023-02-05T19:54:09.985Z,124.60
2023-02-05T19:56:40.090Z,131.17
2023-02-05T19:59:07.248Z,137.73
2023-02-05T20:01:37.344Z,123.30
2023-02-05T20:04:15.043Z,135.00
2023-02-05T20:06:45.618Z,129.60
2023-02-05T20:09:13.969Z,133.70
2023-02-05T20:11:42.505Z,112.73
2023-02-05T20:14:10.386Z,112.30
2023-02-05T20:16:39.941Z,119.90
2023-02-05T20:19:13.245Z,106.87
2023-02-05T20:21:40.704Z,110.17
2023-02-05T20:24:08.940Z,118.83
2023-02-05T20:26:39.322Z,112.60
2023-02-05T20:29:25.351Z,122.43
2023-02-05T20:31:52.884Z,121.43
2023-02-05T20:34:30.088Z,119.87
2023-02-05T20:37:03.772Z,109.17
2023-02-05T20:39:33.038Z,98.97
2023-02-05T20:42:00.306Z,90.43
2023-02-05T20:44:29.380Z,97.93
2023-02-05T20:46:56.212Z,92.17
2023-02-05T20:49:25.165Z,86.73
2023-02-05T20:51:52.527Z,81.97
2023-02-05T20:54:20.698Z,81.77
2023-02-05T20:56:50.236Z,76.20
2023-02-05T20:59:17.580Z,76.90
2023-02-05T21:01:44.383Z,81.57
2023-02-05T21:04:12.121Z,82.07
2023-02-05T21:06:40.412Z,79.93
2023-02-05T21:09:08.807Z,79.80
2023-02-05T21:11:36.404Z,70.43
2023-02-05T21:14:03.283Z,68.53
2023-02-05T21:16:30.934Z,71.27
2023-02-05T21:18:58.563Z,60.37
2023-02-05T21:21:28.034Z,65.77
2023-02-05T21:24:04.148Z,67.50
2023-02-05T21:26:36.058Z,71.43
2023-02-05T21:29:09.750Z,71.70
2023-02-05T21:31:48.633Z,78.90
2023-02-05T21:34:22.056Z,85.83
2023-02-05T21:36:49.561Z,81.00
2023-02-05T21:39:16.968Z,81.10
2023-02-05T21:41:44.974Z,84.90
2023-02-05T21:44:11.963Z,91.83
2023-02-05T21:46:38.824Z,92.23
2023-02-05T21:49:05.847Z,94.03
2023-02-05T21:51:34.636Z,91.17
2023-02-05T21:54:03.960Z,95.93
2023-02-05T21:56:37.121Z,87.63
2023-02-05T21:59:04.936Z,94.33
2023-02-05T22:01:34.007Z,100.80
2023-02-05T22:04:07.376Z,100.33
2023-02-05T22:06:34.801Z,84.83
2023-02-05T22:09:04.161Z,79.43
2023-02-05T22:11:31.048Z,78.67
2023-02-05T22:13:58.139Z,68.97
2023-02-05T22:16:32.653Z,70.90
2023-02-05T22:19:00.322Z,69.97
2023-02-05T22:21:32.653Z,69.70
2023-02-05T22:24:00.795Z,68.67
2023-02-05T22:26:30.582Z,65.57
2023-02-05T22:28:59.715Z,73.47
2023-02-05T22:31:27.828Z,66.97
2023-02-05T22:33:55.684Z,63.83
2023-02-05T22:36:25.154Z,66.37
2023-02-05T22:38:52.916Z,77.07
2023-02-05T22:41:22.774Z,92.40
2023-02-05T22:43:50.017Z,107.17
2023-02-05T22:46:18.878Z,100.83
2023-02-05T22:48:47.248Z,80.93
2023-02-05T22:51:24.303Z,102.37
2023-02-05T22:53:54.995Z,99.23
2023-02-05T22:56:21.672Z,101.23
2023-02-05T22:58:48.798Z,107.73
2023-02-05T23:01:24.327Z,170.93
2023-02-05T23:03:51.867Z,146.53
2023-02-05T23:06:33.286Z,135.33
2023-02-05T23:09:04.565Z,176.03
2023-02-05T23:11:31.938Z,119.83
2023-02-05T23:14:00.633Z,97.00
2023-02-05T23:16:33.338Z,136.43
2023-02-05T23:19:03.248Z,130.90
2023-02-05T23:21:31.320Z,121.03
2023-02-05T23:23:58.057Z,122.33
2023-02-05T23:26:26.869Z,139.37
2023-02-05T23:28:54.873Z,134.30
2023-02-05T23:31:23.050Z,132.93
2023-02-05T23:33:51.377Z,125.20
2023-02-05T23:36:18.363Z,115.47
2023-02-05T23:38:45.476Z,134.70
2023-02-05T23:41:12.602Z,139.90
2023-02-05T23:43:39.520Z,130.70
2023-02-05T23:46:06.841Z,156.50
2023-02-05T23:48:33.999Z,151.73
2023-02-05T23:51:00.558Z,140.50
2023-02-05T23:53:27.111Z,157.10
2023-02-05T23:55:54.333Z,135.03
2023-02-05T23:58:27.080Z,130.77
